Route Details

Aircraft Information
Group: North America Fleet
Types: B738, B752, B762, B763
Route Data
Distance: 1578nm
Duration: 3h 54m
Origin METAR: KPHX 152351Z 02003KT 10SM FEW080 FEW160 FEW250 38/16 A2973 RMK AO2 SLP046 CB DSNT E AND W T03780161 10389 20339 56021
Dest. METAR: KLAL 152350Z 21005KT 10SM SKC 28/22 A2989
Freight Data
(for Aug 16, 2022)
Load Factor:
31%
Manifested Cargo: 37,717lbs
Financial History
Total Freight: 0lbs
Average Load: 0lbs/flt
Fuel Used: 0lbs
Avg. Fuel Used: 0lbs/flt
Fuel Expense: $0
Avg. Fuel Expense: $0
Avg. Fuel Cost: $0/lbs
Total Gross Income: $0
Pilot Pay: $0
Total Expenses: $0
Total Revenue: $0
Average Revenue: $0

Capitol Logistics 357




KPHX
Phoenix Sky Harbor International Airport
Phoenix, Arizona
KLAL
Lakeland Linder Regional Airport
Lakeland, Florida

Activity Log

Date Flight Route Aircraft Duration
No Flights Yet